sensor_id;sensor_type;location;lat;lon;timestamp;pressure;altitude;pressure_sealevel;temperature;humidity
43804;BME280;29430;52.924;-2.388;2023-03-01T00:03:03;101139.56;;;5.55;87.69
43804;BME280;29430;52.924;-2.388;2023-03-01T00:07:54;101146.66;;;5.56;87.75
43804;BME280;29430;52.924;-2.388;2023-03-01T00:12:46;101142.81;;;5.59;87.96
43804;BME280;29430;52.924;-2.388;2023-03-01T00:17:38;101143.81;;;5.58;88.22
43804;BME280;29430;52.924;-2.388;2023-03-01T00:22:30;101139.72;;;5.54;88.64
43804;BME280;29430;52.924;-2.388;2023-03-01T00:27:21;101147.66;;;5.55;88.57
43804;BME280;29430;52.924;-2.388;2023-03-01T00:32:15;101135.78;;;5.48;89.48
43804;BME280;29430;52.924;-2.388;2023-03-01T00:37:07;101137.78;;;5.46;90.49
43804;BME280;29430;52.924;-2.388;2023-03-01T00:41:59;101131.56;;;5.46;90.98
43804;BME280;29430;52.924;-2.388;2023-03-01T00:46:53;101123.50;;;5.46;91.67
43804;BME280;29430;52.924;-2.388;2023-03-01T00:51:45;101122.63;;;5.45;93.10
43804;BME280;29430;52.924;-2.388;2023-03-01T00:56:37;101123.63;;;5.44;93.83
43804;BME280;29430;52.924;-2.388;2023-03-01T01:01:31;101120.06;;;5.44;94.34
43804;BME280;29430;52.924;-2.388;2023-03-01T01:11:19;101117.34;;;5.53;95.52
43804;BME280;29430;52.924;-2.388;2023-03-01T01:16:13;101126.81;;;5.57;95.31
43804;BME280;29430;52.924;-2.388;2023-03-01T01:21:07;101128.50;;;5.59;94.51
43804;BME280;29430;52.924;-2.388;2023-03-01T01:26:21;101115.19;;;5.57;94.11
43804;BME280;29430;52.924;-2.388;2023-03-01T01:31:13;101105.56;;;5.54;93.36
43804;BME280;29430;52.924;-2.388;2023-03-01T01:36:06;101112.50;;;5.57;92.44
43804;BME280;29430;52.924;-2.388;2023-03-01T01:40:59;101108.13;;;5.56;92.20
43804;BME280;29430;52.924;-2.388;2023-03-01T01:45:55;101095.38;;;5.58;91.20
43804;BME280;29430;52.924;-2.388;2023-03-01T01:50:55;101086.28;;;5.59;90.95
43804;BME280;29430;52.924;-2.388;2023-03-01T01:55:56;101080.91;;;5.59;90.12
43804;BME280;29430;52.924;-2.388;2023-03-01T02:00:51;101068.75;;;5.55;88.94
43804;BME280;29430;52.924;-2.388;2023-03-01T02:10:48;101064.53;;;5.52;88.46
43804;BME280;29430;52.924;-2.388;2023-03-01T02:15:41;101049.50;;;5.50;88.42
43804;BME280;29430;52.924;-2.388;2023-03-01T02:25:57;101046.75;;;5.42;90.20
43804;BME280;29430;52.924;-2.388;2023-03-01T02:30:50;101034.72;;;5.36;91.11
43804;BME280;29430;52.924;-2.388;2023-03-01T02:36:03;101032.63;;;5.30;91.78
43804;BME280;29430;52.924;-2.388;2023-03-01T02:40:56;101027.75;;;5.25;91.64
43804;BME280;29430;52.924;-2.388;2023-03-01T02:45:50;101026.03;;;5.24;92.46
43804;BME280;29430;52.924;-2.388;2023-03-01T02:51:05;101024.19;;;5.25;92.05
43804;BME280;29430;52.924;-2.388;2023-03-01T02:56:00;101025.75;;;5.27;91.36
43804;BME280;29430;52.924;-2.388;2023-03-01T03:00:52;101014.97;;;5.27;90.71
43804;BME280;29430;52.924;-2.388;2023-03-01T03:05:45;101013.97;;;5.28;90.50
43804;BME280;29430;52.924;-2.388;2023-03-01T03:10:40;101013.13;;;5.28;90.01
43804;BME280;29430;52.924;-2.388;2023-03-01T03:15:32;101005.88;;;5.28;89.61
43804;BME280;29430;52.924;-2.388;2023-03-01T03:20:28;101001.69;;;5.26;88.75
43804;BME280;29430;52.924;-2.388;2023-03-01T03:25:21;100992.06;;;5.23;89.12
43804;BME280;29430;52.924;-2.388;2023-03-01T03:30:16;100992.38;;;5.20;88.75
43804;BME280;29430;52.924;-2.388;2023-03-01T03:35:09;100992.81;;;5.15;88.35
43804;BME280;29430;52.924;-2.388;2023-03-01T03:40:01;100989.59;;;5.12;88.61
43804;BME280;29430;52.924;-2.388;2023-03-01T03:44:53;100987.06;;;5.10;89.46
43804;BME280;29430;52.924;-2.388;2023-03-01T03:49:45;100987.34;;;5.07;90.17
43804;BME280;29430;52.924;-2.388;2023-03-01T03:54:36;100980.72;;;5.01;91.57
43804;BME280;29430;52.924;-2.388;2023-03-01T03:59:28;100981.88;;;4.99;92.52
43804;BME280;29430;52.924;-2.388;2023-03-01T04:04:20;100983.03;;;4.96;93.89
43804;BME280;29430;52.924;-2.388;2023-03-01T04:09:11;100980.50;;;4.95;94.94
43804;BME280;29430;52.924;-2.388;2023-03-01T04:14:03;100972.72;;;4.92;95.10
43804;BME280;29430;52.924;-2.388;2023-03-01T04:18:55;100969.50;;;4.88;96.32
43804;BME280;29430;52.924;-2.388;2023-03-01T04:23:47;100966.09;;;4.86;97.03
43804;BME280;29430;52.924;-2.388;2023-03-01T04:28:40;100955.03;;;4.89;96.96
43804;BME280;29430;52.924;-2.388;2023-03-01T04:33:34;100961.44;;;4.88;96.07
43804;BME280;29430;52.924;-2.388;2023-03-01T04:38:26;100951.13;;;4.83;96.09
43804;BME280;29430;52.924;-2.388;2023-03-01T04:43:17;100950.25;;;4.83;95.81
43804;BME280;29430;52.924;-2.388;2023-03-01T04:48:09;100940.38;;;4.83;95.72
43804;BME280;29430;52.924;-2.388;2023-03-01T04:53:01;100943.91;;;4.84;95.86
43804;BME280;29430;52.924;-2.388;2023-03-01T04:57:53;100944.59;;;4.86;96.07
43804;BME280;29430;52.924;-2.388;2023-03-01T05:02:47;100950.13;;;4.84;96.14
43804;BME280;29430;52.924;-2.388;2023-03-01T05:07:40;100939.28;;;4.76;97.16
43804;BME280;29430;52.924;-2.388;2023-03-01T05:12:31;100942.47;;;4.62;97.99
43804;BME280;29430;52.924;-2.388;2023-03-01T05:17:23;100954.06;;;4.62;98.65
43804;BME280;29430;52.924;-2.388;2023-03-01T05:22:15;100950.53;;;4.62;98.87
43804;BME280;29430;52.924;-2.388;2023-03-01T05:27:07;100953.22;;;4.62;99.37
43804;BME280;29430;52.924;-2.388;2023-03-01T05:32:00;100944.72;;;4.66;99.23
43804;BME280;29430;52.924;-2.388;2023-03-01T05:36:53;100947.09;;;4.70;99.46
43804;BME280;29430;52.924;-2.388;2023-03-01T05:41:45;100938.00;;;4.71;99.34
43804;BME280;29430;52.924;-2.388;2023-03-01T05:46:36;100942.41;;;4.72;98.81
43804;BME280;29430;52.924;-2.388;2023-03-01T05:51:28;100932.94;;;4.68;98.21
43804;BME280;29430;52.924;-2.388;2023-03-01T05:56:20;100938.06;;;4.61;97.55
43804;BME280;29430;52.924;-2.388;2023-03-01T06:01:13;100943.94;;;4.46;97.68
43804;BME280;29430;52.924;-2.388;2023-03-01T06:06:05;100946.06;;;4.43;97.79
43804;BME280;29430;52.924;-2.388;2023-03-01T06:10:56;100947.38;;;4.39;97.78
43804;BME280;29430;52.924;-2.388;2023-03-01T06:15:48;100938.34;;;4.30;97.13
43804;BME280;29430;52.924;-2.388;2023-03-01T06:20:40;100944.00;;;4.27;97.30
43804;BME280;29430;52.924;-2.388;2023-03-01T06:25:32;100942.88;;;4.29;97.58
43804;BME280;29430;52.924;-2.388;2023-03-01T06:30:25;100954.44;;;4.30;97.53
43804;BME280;29430;52.924;-2.388;2023-03-01T06:35:18;100946.53;;;4.28;97.72
43804;BME280;29430;52.924;-2.388;2023-03-01T06:40:10;100959.00;;;4.20;98.30
43804;BME280;29430;52.924;-2.388;2023-03-01T06:45:06;100959.28;;;4.17;99.38
43804;BME280;29430;52.924;-2.388;2023-03-01T06:49:59;100969.19;;;4.16;100.00
43804;BME280;29430;52.924;-2.388;2023-03-01T06:54:50;100975.13;;;4.10;100.00
43804;BME280;29430;52.924;-2.388;2023-03-01T06:59:42;100952.09;;;4.07;100.00
43804;BME280;29430;52.924;-2.388;2023-03-01T07:04:33;100954.78;;;4.07;100.00
43804;BME280;29430;52.924;-2.388;2023-03-01T07:09:25;100966.53;;;4.06;100.00
43804;BME280;29430;52.924;-2.388;2023-03-01T07:14:17;100973.19;;;4.02;100.00
43804;BME280;29430;52.924;-2.388;2023-03-01T07:19:11;100965.66;;;4.06;100.00
43804;BME280;29430;52.924;-2.388;2023-03-01T07:24:03;100956.63;;;4.07;100.00
43804;BME280;29430;52.924;-2.388;2023-03-01T07:28:54;100955.81;;;4.06;100.00
43804;BME280;29430;52.924;-2.388;2023-03-01T07:33:46;100942.38;;;4.06;100.00
43804;BME280;29430;52.924;-2.388;2023-03-01T07:38:38;100946.28;;;4.12;100.00
43804;BME280;29430;52.924;-2.388;2023-03-01T07:43:30;100957.47;;;4.17;100.00
43804;BME280;29430;52.924;-2.388;2023-03-01T07:48:22;100964.06;;;4.23;100.00
43804;BME280;29430;52.924;-2.388;2023-03-01T07:53:14;100963.06;;;4.34;100.00
43804;BME280;29430;52.924;-2.388;2023-03-01T07:58:05;100961.50;;;4.41;100.00
43804;BME280;29430;52.924;-2.388;2023-03-01T08:03:01;100970.38;;;4.51;100.00
43804;BME280;29430;52.924;-2.388;2023-03-01T08:07:53;100964.66;;;4.64;100.00
43804;BME280;29430;52.924;-2.388;2023-03-01T08:12:45;100967.88;;;4.68;100.00
43804;BME280;29430;52.924;-2.388;2023-03-01T08:17:37;100970.56;;;4.68;100.00
43804;BME280;29430;52.924;-2.388;2023-03-01T08:22:28;100968.75;;;4.68;100.00
43804;BME280;29430;52.924;-2.388;2023-03-01T08:27:20;100976.97;;;4.66;100.00
43804;BME280;29430;52.924;-2.388;2023-03-01T08:32:12;100974.97;;;4.69;100.00
43804;BME280;29430;52.924;-2.388;2023-03-01T08:37:04;100976.22;;;4.74;100.00
43804;BME280;29430;52.924;-2.388;2023-03-01T08:41:56;100972.50;;;4.75;100.00
43804;BME280;29430;52.924;-2.388;2023-03-01T08:46:50;100969.13;;;4.73;100.00
43804;BME280;29430;52.924;-2.388;2023-03-01T08:51:45;100969.66;;;4.77;100.00
43804;BME280;29430;52.924;-2.388;2023-03-01T08:56:37;100973.91;;;4.79;100.00
43804;BME280;29430;52.924;-2.388;2023-03-01T09:01:30;100972.78;;;4.82;100.00
43804;BME280;29430;52.924;-2.388;2023-03-01T09:06:21;100981.16;;;4.79;100.00
43804;BME280;29430;52.924;-2.388;2023-03-01T09:11:16;100970.25;;;4.80;100.00
43804;BME280;29430;52.924;-2.388;2023-03-01T09:16:09;100962.41;;;4.87;100.00
43804;BME280;29430;52.924;-2.388;2023-03-01T09:21:13;100966.28;;;5.02;100.00
43804;BME280;29430;52.924;-2.388;2023-03-01T09:26:06;100964.19;;;5.24;100.00
43804;BME280;29430;52.924;-2.388;2023-03-01T09:31:00;100961.72;;;5.31;100.00
43804;BME280;29430;52.924;-2.388;2023-03-01T09:35:57;100958.09;;;5.40;100.00
43804;BME280;29430;52.924;-2.388;2023-03-01T09:40:49;100949.63;;;5.53;100.00
43804;BME280;29430;52.924;-2.388;2023-03-01T09:45:43;100949.41;;;5.64;100.00
43804;BME280;29430;52.924;-2.388;2023-03-01T09:50:39;100951.19;;;5.73;100.00
43804;BME280;29430;52.924;-2.388;2023-03-01T09:55:41;100937.25;;;5.78;100.00
43804;BME280;29430;52.924;-2.388;2023-03-01T10:00:45;100925.78;;;5.76;100.00
43804;BME280;29430;52.924;-2.388;2023-03-01T10:10:49;100900.44;;;5.87;100.00
43804;BME280;29430;52.924;-2.388;2023-03-01T10:15:50;100901.59;;;6.02;100.00
43804;BME280;29430;52.924;-2.388;2023-03-01T10:20:58;100895.22;;;6.03;99.78
43804;BME280;29430;52.924;-2.388;2023-03-01T10:31:04;100874.97;;;5.99;100.00
43804;BME280;29430;52.924;-2.388;2023-03-01T10:35:59;100889.03;;;6.11;100.00
43804;BME280;29430;52.924;-2.388;2023-03-01T10:45:42;100878.44;;;6.18;98.22
43804;BME280;29430;52.924;-2.388;2023-03-01T10:50:34;100881.13;;;6.18;98.02
43804;BME280;29430;52.924;-2.388;2023-03-01T11:00:26;100860.94;;;6.14;98.01
43804;BME280;29430;52.924;-2.388;2023-03-01T11:05:23;100859.03;;;6.40;98.15
43804;BME280;29430;52.924;-2.388;2023-03-01T11:10:36;100845.25;;;6.52;95.64
43804;BME280;29430;52.924;-2.388;2023-03-01T11:15:28;100836.72;;;6.65;95.58
43804;BME280;29430;52.924;-2.388;2023-03-01T11:20:30;100838.25;;;6.75;95.76
43804;BME280;29430;52.924;-2.388;2023-03-01T11:25:35;100840.97;;;6.75;94.28
43804;BME280;29430;52.924;-2.388;2023-03-01T11:30:41;100835.19;;;6.70;94.25
43804;BME280;29430;52.924;-2.388;2023-03-01T11:36:03;100839.75;;;6.61;93.80
43804;BME280;29430;52.924;-2.388;2023-03-01T11:41:04;100832.63;;;6.52;94.39
43804;BME280;29430;52.924;-2.388;2023-03-01T11:51:05;100817.47;;;6.51;93.67
43804;BME280;29430;52.924;-2.388;2023-03-01T11:56:10;100811.25;;;6.51;93.02
43804;BME280;29430;52.924;-2.388;2023-03-01T12:21:41;100774.22;;;7.10;86.04
43804;BME280;29430;52.924;-2.388;2023-03-01T12:26:48;100773.75;;;6.98;86.69
43804;BME280;29430;52.924;-2.388;2023-03-01T12:32:03;100772.88;;;6.90;87.12
43804;BME280;29430;52.924;-2.388;2023-03-01T12:37:12;100769.00;;;6.76;88.35
43804;BME280;29430;52.924;-2.388;2023-03-01T12:52:39;100747.91;;;6.79;91.23
43804;BME280;29430;52.924;-2.388;2023-03-01T12:57:43;100747.59;;;6.91;89.59
43804;BME280;29430;52.924;-2.388;2023-03-01T13:08:32;100720.44;;;6.84;87.21
43804;BME280;29430;52.924;-2.388;2023-03-01T13:13:29;100720.28;;;6.86;88.08
43804;BME280;29430;52.924;-2.388;2023-03-01T13:43:35;100652.25;;;7.40;82.54
43804;BME280;29430;52.924;-2.388;2023-03-01T13:48:29;100630.00;;;7.38;84.17
43804;BME280;29430;52.924;-2.388;2023-03-01T13:53:25;100613.16;;;7.35;85.33
43804;BME280;29430;52.924;-2.388;2023-03-01T13:58:29;100604.00;;;7.45;84.86
43804;BME280;29430;52.924;-2.388;2023-03-01T14:03:21;100588.56;;;7.62;85.37
43804;BME280;29430;52.924;-2.388;2023-03-01T14:08:24;100598.94;;;7.73;84.96
43804;BME280;29430;52.924;-2.388;2023-03-01T14:13:31;100599.44;;;7.77;85.40
43804;BME280;29430;52.924;-2.388;2023-03-01T14:18:42;100594.22;;;7.75;85.06
43804;BME280;29430;52.924;-2.388;2023-03-01T14:23:39;100574.19;;;7.69;85.63
43804;BME280;29430;52.924;-2.388;2023-03-01T14:28:32;100566.91;;;7.70;88.06
43804;BME280;29430;52.924;-2.388;2023-03-01T14:33:33;100566.19;;;7.76;89.08
43804;BME280;29430;52.924;-2.388;2023-03-01T14:43:29;100545.84;;;7.88;88.44
43804;BME280;29430;52.924;-2.388;2023-03-01T14:48:21;100533.00;;;7.91;85.63
43804;BME280;29430;52.924;-2.388;2023-03-01T14:53:27;100536.66;;;7.75;84.60
43804;BME280;29430;52.924;-2.388;2023-03-01T14:58:22;100532.53;;;7.64;84.48
43804;BME280;29430;52.924;-2.388;2023-03-01T15:03:24;100540.16;;;7.52;83.01
43804;BME280;29430;52.924;-2.388;2023-03-01T15:08:20;100539.03;;;7.46;83.75
43804;BME280;29430;52.924;-2.388;2023-03-01T15:13:19;100526.19;;;7.48;84.26
43804;BME280;29430;52.924;-2.388;2023-03-01T15:18:16;100520.75;;;7.57;84.84
43804;BME280;29430;52.924;-2.388;2023-03-01T15:23:25;100513.16;;;7.60;85.69
43804;BME280;29430;52.924;-2.388;2023-03-01T15:28:19;100507.94;;;7.50;85.02
43804;BME280;29430;52.924;-2.388;2023-03-01T15:48:32;100490.94;;;7.19;85.04
43804;BME280;29430;52.924;-2.388;2023-03-01T15:53:25;100487.09;;;7.13;84.93
43804;BME280;29430;52.924;-2.388;2023-03-01T15:58:27;100486.59;;;7.09;84.89
43804;BME280;29430;52.924;-2.388;2023-03-01T16:03:19;100474.34;;;6.98;85.21
43804;BME280;29430;52.924;-2.388;2023-03-01T16:08:13;100483.41;;;7.06;85.38
43804;BME280;29430;52.924;-2.388;2023-03-01T16:13:05;100485.75;;;7.09;85.78
43804;BME280;29430;52.924;-2.388;2023-03-01T16:17:57;100479.16;;;7.11;86.69
43804;BME280;29430;52.924;-2.388;2023-03-01T16:22:52;100477.84;;;7.07;86.80
43804;BME280;29430;52.924;-2.388;2023-03-01T16:27:48;100464.75;;;6.96;88.58
43804;BME280;29430;52.924;-2.388;2023-03-01T16:32:41;100469.66;;;6.92;89.12
43804;BME280;29430;52.924;-2.388;2023-03-01T16:37:34;100478.63;;;6.85;89.34
43804;BME280;29430;52.924;-2.388;2023-03-01T16:42:26;100460.44;;;6.78;90.29
43804;BME280;29430;52.924;-2.388;2023-03-01T16:47:19;100462.63;;;6.75;91.24
43804;BME280;29430;52.924;-2.388;2023-03-01T16:52:10;100455.06;;;6.70;92.64
43804;BME280;29430;52.924;-2.388;2023-03-01T16:57:02;100449.69;;;6.70;92.32
43804;BME280;29430;52.924;-2.388;2023-03-01T17:01:54;100452.88;;;6.66;90.65
43804;BME280;29430;52.924;-2.388;2023-03-01T17:06:46;100448.72;;;6.63;90.71
43804;BME280;29430;52.924;-2.388;2023-03-01T17:11:40;100455.28;;;6.60;90.68
43804;BME280;29430;52.924;-2.388;2023-03-01T17:16:31;100446.72;;;6.57;90.50
43804;BME280;29430;52.924;-2.388;2023-03-01T17:21:23;100455.78;;;6.56;91.15
43804;BME280;29430;52.924;-2.388;2023-03-01T17:26:15;100455.78;;;6.56;90.70
43804;BME280;29430;52.924;-2.388;2023-03-01T17:31:07;100463.06;;;6.55;91.60
43804;BME280;29430;52.924;-2.388;2023-03-01T17:35:59;100461.72;;;6.51;91.74
43804;BME280;29430;52.924;-2.388;2023-03-01T17:40:51;100454.50;;;6.43;93.21
43804;BME280;29430;52.924;-2.388;2023-03-01T17:45:44;100459.91;;;6.35;93.85
43804;BME280;29430;52.924;-2.388;2023-03-01T17:50:39;100456.53;;;6.25;94.75
43804;BME280;29430;52.924;-2.388;2023-03-01T17:55:30;100467.00;;;6.12;95.08
43804;BME280;29430;52.924;-2.388;2023-03-01T18:00:22;100462.63;;;6.02;95.79
43804;BME280;29430;52.924;-2.388;2023-03-01T18:05:14;100464.47;;;5.94;96.15
43804;BME280;29430;52.924;-2.388;2023-03-01T18:10:06;100465.97;;;5.88;96.46
43804;BME280;29430;52.924;-2.388;2023-03-01T18:14:58;100472.69;;;5.84;96.91
43804;BME280;29430;52.924;-2.388;2023-03-01T18:19:50;100472.03;;;5.82;97.17
43804;BME280;29430;52.924;-2.388;2023-03-01T18:24:42;100472.69;;;5.84;96.77
43804;BME280;29430;52.924;-2.388;2023-03-01T18:29:36;100480.78;;;5.84;97.33
43804;BME280;29430;52.924;-2.388;2023-03-01T18:34:28;100475.72;;;5.81;97.89
43804;BME280;29430;52.924;-2.388;2023-03-01T18:39:19;100472.72;;;5.76;98.87
43804;BME280;29430;52.924;-2.388;2023-03-01T18:44:11;100460.25;;;5.74;100.00
43804;BME280;29430;52.924;-2.388;2023-03-01T18:49:04;100453.53;;;5.70;99.52
43804;BME280;29430;52.924;-2.388;2023-03-01T18:53:56;100455.03;;;5.65;100.00
43804;BME280;29430;52.924;-2.388;2023-03-01T18:58:51;100455.03;;;5.56;100.00
43804;BME280;29430;52.924;-2.388;2023-03-01T19:03:44;100448.97;;;5.54;100.00
43804;BME280;29430;52.924;-2.388;2023-03-01T19:08:36;100442.59;;;5.55;100.00
43804;BME280;29430;52.924;-2.388;2023-03-01T19:13:29;100441.41;;;5.58;100.00
43804;BME280;29430;52.924;-2.388;2023-03-01T19:18:21;100447.31;;;5.62;100.00
43804;BME280;29430;52.924;-2.388;2023-03-01T19:23:12;100438.72;;;5.66;100.00
43804;BME280;29430;52.924;-2.388;2023-03-01T19:28:04;100439.56;;;5.67;99.57
43804;BME280;29430;52.924;-2.388;2023-03-01T19:32:56;100434.16;;;5.67;99.49
43804;BME280;29430;52.924;-2.388;2023-03-01T19:37:48;100434.50;;;5.64;99.49
43804;BME280;29430;52.924;-2.388;2023-03-01T19:42:40;100431.66;;;5.57;99.78
43804;BME280;29430;52.924;-2.388;2023-03-01T19:47:31;100426.13;;;5.50;99.11
43804;BME280;29430;52.924;-2.388;2023-03-01T19:52:23;100429.47;;;5.44;98.99
43804;BME280;29430;52.924;-2.388;2023-03-01T19:57:15;100428.09;;;5.40;99.11
43804;BME280;29430;52.924;-2.388;2023-03-01T20:02:08;100422.91;;;5.38;99.20
43804;BME280;29430;52.924;-2.388;2023-03-01T20:07:00;100412.31;;;5.37;98.37
43804;BME280;29430;52.924;-2.388;2023-03-01T20:11:51;100402.22;;;5.31;98.50
43804;BME280;29430;52.924;-2.388;2023-03-01T20:16:43;100407.59;;;5.31;97.68
43804;BME280;29430;52.924;-2.388;2023-03-01T20:21:35;100402.03;;;5.24;97.71
43804;BME280;29430;52.924;-2.388;2023-03-01T20:26:26;100406.06;;;5.20;98.35
43804;BME280;29430;52.924;-2.388;2023-03-01T20:31:21;100402.88;;;5.16;99.04
43804;BME280;29430;52.924;-2.388;2023-03-01T20:36:13;100402.88;;;5.16;99.21
43804;BME280;29430;52.924;-2.388;2023-03-01T20:41:08;100410.09;;;5.16;99.71
43804;BME280;29430;52.924;-2.388;2023-03-01T20:46:09;100400.34;;;5.15;99.30
43804;BME280;29430;52.924;-2.388;2023-03-01T20:51:06;100402.03;;;5.16;99.72
43804;BME280;29430;52.924;-2.388;2023-03-01T20:56:05;100391.94;;;5.10;99.46
43804;BME280;29430;52.924;-2.388;2023-03-01T21:00:58;100395.13;;;5.05;99.85
43804;BME280;29430;52.924;-2.388;2023-03-01T21:05:49;100396.28;;;5.02;100.00
43804;BME280;29430;52.924;-2.388;2023-03-01T21:10:41;100393.59;;;5.02;99.98
43804;BME280;29430;52.924;-2.388;2023-03-01T21:15:33;100381.84;;;5.04;99.96
43804;BME280;29430;52.924;-2.388;2023-03-01T21:20:24;100380.16;;;5.02;100.00
43804;BME280;29430;52.924;-2.388;2023-03-01T21:25:16;100385.38;;;5.04;100.00
43804;BME280;29430;52.924;-2.388;2023-03-01T21:30:09;100378.47;;;5.01;100.00
43804;BME280;29430;52.924;-2.388;2023-03-01T21:35:01;100389.22;;;4.93;100.00
43804;BME280;29430;52.924;-2.388;2023-03-01T21:39:52;100394.59;;;4.93;100.00
43804;BME280;29430;52.924;-2.388;2023-03-01T21:44:44;100391.56;;;4.88;100.00
43804;BME280;29430;52.924;-2.388;2023-03-01T21:49:36;100396.41;;;4.84;100.00
43804;BME280;29430;52.924;-2.388;2023-03-01T21:54:28;100397.44;;;4.83;100.00
43804;BME280;29430;52.924;-2.388;2023-03-01T21:59:22;100389.69;;;4.80;100.00
43804;BME280;29430;52.924;-2.388;2023-03-01T22:04:15;100377.41;;;4.78;100.00
43804;BME280;29430;52.924;-2.388;2023-03-01T22:09:14;100383.94;;;4.75;100.00
43804;BME280;29430;52.924;-2.388;2023-03-01T22:14:07;100390.50;;;4.73;100.00
43804;BME280;29430;52.924;-2.388;2023-03-01T22:18:59;100395.03;;;4.72;100.00
43804;BME280;29430;52.924;-2.388;2023-03-01T22:23:52;100396.22;;;4.70;99.41
43804;BME280;29430;52.924;-2.388;2023-03-01T22:28:44;100401.25;;;4.73;98.58
43804;BME280;29430;52.924;-2.388;2023-03-01T22:33:36;100394.69;;;4.75;97.79
43804;BME280;29430;52.924;-2.388;2023-03-01T22:38:27;100391.84;;;4.77;96.54
43804;BME280;29430;52.924;-2.388;2023-03-01T22:43:19;100403.47;;;4.77;94.58
43804;BME280;29430;52.924;-2.388;2023-03-01T22:48:11;100401.44;;;4.79;94.18
43804;BME280;29430;52.924;-2.388;2023-03-01T22:53:02;100397.06;;;4.78;92.38
43804;BME280;29430;52.924;-2.388;2023-03-01T22:57:54;100401.59;;;4.78;93.12
43804;BME280;29430;52.924;-2.388;2023-03-01T23:02:46;100396.38;;;4.76;92.31
43804;BME280;29430;52.924;-2.388;2023-03-01T23:07:38;100394.53;;;4.77;92.36
43804;BME280;29430;52.924;-2.388;2023-03-01T23:12:30;100404.94;;;4.72;91.78
43804;BME280;29430;52.924;-2.388;2023-03-01T23:17:22;100398.72;;;4.71;90.21
43804;BME280;29430;52.924;-2.388;2023-03-01T23:22:14;100391.66;;;4.70;90.21
43804;BME280;29430;52.924;-2.388;2023-03-01T23:27:06;100386.63;;;4.67;90.69
43804;BME280;29430;52.924;-2.388;2023-03-01T23:31:58;100392.81;;;4.68;91.28
43804;BME280;29430;52.924;-2.388;2023-03-01T23:36:53;100389.31;;;4.67;91.81
43804;BME280;29430;52.924;-2.388;2023-03-01T23:41:45;100387.59;;;4.66;91.42
43804;BME280;29430;52.924;-2.388;2023-03-01T23:46:37;100392.16;;;4.65;91.88
43804;BME280;29430;52.924;-2.388;2023-03-01T23:51:29;100404.91;;;4.63;92.17
43804;BME280;29430;52.924;-2.388;2023-03-01T23:56:24;100396.84;;;4.63;92.20
